sensor_id;sensor_type;location;lat;lon;timestamp;pressure;altitude;pressure_sealevel;temperature;humidity
53550;BME280;73079;52.914;-0.982;2024-03-23T00:54:38;100952.66;;;4.68;81.74
53550;BME280;73079;52.914;-0.982;2024-03-23T00:57:04;100951.38;;;4.72;82.56
53550;BME280;73079;52.914;-0.982;2024-03-23T00:59:29;100941.16;;;4.58;83.52
53550;BME280;73079;52.914;-0.982;2024-03-23T01:01:56;100937.09;;;4.54;83.79
53550;BME280;73079;52.914;-0.982;2024-03-23T01:04:22;100936.69;;;4.49;83.64
53550;BME280;73079;52.914;-0.982;2024-03-23T01:06:48;100940.72;;;4.53;83.64
53550;BME280;73079;52.914;-0.982;2024-03-23T01:09:13;100932.22;;;4.59;83.45
53550;BME280;73079;52.914;-0.982;2024-03-23T01:11:41;100929.97;;;4.54;83.65
53550;BME280;73079;52.914;-0.982;2024-03-23T01:14:06;100925.06;;;4.50;83.19
53550;BME280;73079;52.914;-0.982;2024-03-23T01:16:32;100920.00;;;4.56;82.38
53550;BME280;73079;52.914;-0.982;2024-03-23T01:18:58;100913.44;;;4.41;81.54
53550;BME280;73079;52.914;-0.982;2024-03-23T01:21:24;100909.09;;;4.30;81.47
53550;BME280;73079;52.914;-0.982;2024-03-23T01:23:50;100901.94;;;4.31;80.39
53550;BME280;73079;52.914;-0.982;2024-03-23T01:26:16;100892.56;;;4.17;80.67
53550;BME280;73079;52.914;-0.982;2024-03-23T01:28:43;100885.84;;;4.13;80.04
53550;BME280;73079;52.914;-0.982;2024-03-23T01:31:08;100887.78;;;4.11;79.58
53550;BME280;73079;52.914;-0.982;2024-03-23T01:33:34;100882.63;;;4.09;79.59
53550;BME280;73079;52.914;-0.982;2024-03-23T01:36:00;100884.00;;;4.13;78.68
53550;BME280;73079;52.914;-0.982;2024-03-23T01:38:26;100879.94;;;4.09;78.63
53550;BME280;73079;52.914;-0.982;2024-03-23T01:40:56;100889.03;;;4.07;78.47
53550;BME280;73079;52.914;-0.982;2024-03-23T01:43:22;100897.56;;;4.10;78.32
53550;BME280;73079;52.914;-0.982;2024-03-23T01:45:50;100885.28;;;4.19;77.60
53550;BME280;73079;52.914;-0.982;2024-03-23T01:48:16;100881.47;;;4.12;78.24
53550;BME280;73079;52.914;-0.982;2024-03-23T01:50:41;100884.13;;;4.12;78.43
53550;BME280;73079;52.914;-0.982;2024-03-23T01:53:07;100880.09;;;4.08;78.67
53550;BME280;73079;52.914;-0.982;2024-03-23T01:55:33;100883.44;;;4.00;78.68
53550;BME280;73079;52.914;-0.982;2024-03-23T01:57:59;100879.91;;;3.99;78.63
53550;BME280;73079;52.914;-0.982;2024-03-23T02:00:25;100871.38;;;3.96;78.96
53550;BME280;73079;52.914;-0.982;2024-03-23T02:02:53;100881.06;;;3.97;78.39
53550;BME280;73079;52.914;-0.982;2024-03-23T02:05:20;100874.19;;;3.94;78.93
53550;BME280;73079;52.914;-0.982;2024-03-23T02:07:46;100882.00;;;3.96;78.48
53550;BME280;73079;52.914;-0.982;2024-03-23T02:10:12;100875.16;;;3.93;78.69
53550;BME280;73079;52.914;-0.982;2024-03-23T02:12:41;100871.38;;;3.86;79.36
53550;BME280;73079;52.914;-0.982;2024-03-23T02:15:07;100868.72;;;3.86;79.41
53550;BME280;73079;52.914;-0.982;2024-03-23T02:17:35;100858.66;;;3.90;78.70
53550;BME280;73079;52.914;-0.982;2024-03-23T02:20:03;100845.50;;;3.88;79.01
53550;BME280;73079;52.914;-0.982;2024-03-23T02:22:36;100848.41;;;3.85;79.05
53550;BME280;73079;52.914;-0.982;2024-03-23T02:25:04;100840.19;;;3.88;78.67
53550;BME280;73079;52.914;-0.982;2024-03-23T02:27:29;100835.69;;;3.79;79.31
53550;BME280;73079;52.914;-0.982;2024-03-23T02:29:55;100834.81;;;3.69;79.59
53550;BME280;73079;52.914;-0.982;2024-03-23T02:32:21;100834.97;;;3.67;79.96
53550;BME280;73079;52.914;-0.982;2024-03-23T02:34:47;100837.63;;;3.67;80.04
53550;BME280;73079;52.914;-0.982;2024-03-23T02:37:13;100835.09;;;3.66;80.29
53550;BME280;73079;52.914;-0.982;2024-03-23T02:39:38;100832.16;;;3.69;79.58
53550;BME280;73079;52.914;-0.982;2024-03-23T02:42:06;100833.31;;;3.76;79.23
53550;BME280;73079;52.914;-0.982;2024-03-23T02:44:31;100828.56;;;3.79;79.31
53550;BME280;73079;52.914;-0.982;2024-03-23T02:46:57;100840.19;;;3.78;79.20
53550;BME280;73079;52.914;-0.982;2024-03-23T02:49:23;100822.94;;;3.73;79.88
53550;BME280;73079;52.914;-0.982;2024-03-23T02:52:10;100830.91;;;3.73;79.71
53550;BME280;73079;52.914;-0.982;2024-03-23T02:54:36;100832.34;;;3.77;79.70
53550;BME280;73079;52.914;-0.982;2024-03-23T02:57:02;100825.91;;;3.79;79.89
53550;BME280;73079;52.914;-0.982;2024-03-23T02:59:29;100820.56;;;3.79;80.06
53550;BME280;73079;52.914;-0.982;2024-03-23T03:01:55;100821.72;;;3.77;80.22
53550;BME280;73079;52.914;-0.982;2024-03-23T03:04:21;100809.66;;;3.73;80.10
53550;BME280;73079;52.914;-0.982;2024-03-23T03:06:47;100807.72;;;3.75;80.05
53550;BME280;73079;52.914;-0.982;2024-03-23T03:09:13;100816.97;;;3.80;79.57
53550;BME280;73079;52.914;-0.982;2024-03-23T03:11:38;100819.19;;;3.75;80.09
53550;BME280;73079;52.914;-0.982;2024-03-23T03:14:04;100809.94;;;3.70;79.84
53550;BME280;73079;52.914;-0.982;2024-03-23T03:16:34;100825.06;;;3.79;79.91
53550;BME280;73079;52.914;-0.982;2024-03-23T03:19:00;100808.00;;;3.72;79.99
53550;BME280;73079;52.914;-0.982;2024-03-23T03:21:26;100806.03;;;3.84;79.68
53550;BME280;73079;52.914;-0.982;2024-03-23T03:23:52;100805.06;;;3.75;79.37
53550;BME280;73079;52.914;-0.982;2024-03-23T03:26:18;100788.97;;;3.76;79.56
53550;BME280;73079;52.914;-0.982;2024-03-23T03:28:45;100796.53;;;3.81;79.60
53550;BME280;73079;52.914;-0.982;2024-03-23T03:31:14;100790.34;;;3.71;80.08
53550;BME280;73079;52.914;-0.982;2024-03-23T03:33:41;100791.63;;;3.67;80.54
53550;BME280;73079;52.914;-0.982;2024-03-23T03:36:07;100790.91;;;3.65;80.53
53550;BME280;73079;52.914;-0.982;2024-03-23T03:38:34;100794.00;;;3.70;80.63
53550;BME280;73079;52.914;-0.982;2024-03-23T03:41:03;100780.16;;;3.66;80.54
53550;BME280;73079;52.914;-0.982;2024-03-23T03:43:32;100777.50;;;3.66;80.86
53550;BME280;73079;52.914;-0.982;2024-03-23T03:46:01;100779.16;;;3.67;80.55
53550;BME280;73079;52.914;-0.982;2024-03-23T03:48:29;100767.84;;;3.65;80.40
53550;BME280;73079;52.914;-0.982;2024-03-23T03:50:56;100770.09;;;3.70;80.02
53550;BME280;73079;52.914;-0.982;2024-03-23T03:53:22;100769.22;;;3.69;79.71
53550;BME280;73079;52.914;-0.982;2024-03-23T03:55:49;100768.97;;;3.72;79.85
53550;BME280;73079;52.914;-0.982;2024-03-23T03:58:16;100773.00;;;3.76;79.80
53550;BME280;73079;52.914;-0.982;2024-03-23T04:00:42;100773.00;;;3.67;80.21
53550;BME280;73079;52.914;-0.982;2024-03-23T04:03:07;100761.81;;;3.73;79.55
53550;BME280;73079;52.914;-0.982;2024-03-23T04:05:33;100759.72;;;3.76;78.95
53550;BME280;73079;52.914;-0.982;2024-03-23T04:08:00;100759.03;;;3.74;79.27
53550;BME280;73079;52.914;-0.982;2024-03-23T04:10:26;100749.53;;;3.72;79.30
53550;BME280;73079;52.914;-0.982;2024-03-23T04:12:52;100754.28;;;3.68;79.92
53550;BME280;73079;52.914;-0.982;2024-03-23T04:15:19;100757.50;;;3.72;79.57
53550;BME280;73079;52.914;-0.982;2024-03-23T04:17:45;100752.88;;;3.74;79.79
53550;BME280;73079;52.914;-0.982;2024-03-23T04:20:11;100748.97;;;3.78;79.70
53550;BME280;73079;52.914;-0.982;2024-03-23T04:22:39;100752.44;;;3.69;79.95
53550;BME280;73079;52.914;-0.982;2024-03-23T04:25:06;100742.25;;;3.74;79.92
53550;BME280;73079;52.914;-0.982;2024-03-23T04:27:32;100746.44;;;3.67;80.11
53550;BME280;73079;52.914;-0.982;2024-03-23T04:29:58;100749.78;;;3.69;80.38
53550;BME280;73079;52.914;-0.982;2024-03-23T04:32:26;100739.72;;;3.63;80.40
53550;BME280;73079;52.914;-0.982;2024-03-23T04:34:52;100730.06;;;3.61;80.76
53550;BME280;73079;52.914;-0.982;2024-03-23T04:37:18;100729.09;;;3.53;81.28
53550;BME280;73079;52.914;-0.982;2024-03-23T04:39:44;100727.16;;;3.65;80.70
53550;BME280;73079;52.914;-0.982;2024-03-23T04:42:11;100719.44;;;3.61;80.98
53550;BME280;73079;52.914;-0.982;2024-03-23T04:44:37;100717.75;;;3.60;80.70
53550;BME280;73079;52.914;-0.982;2024-03-23T04:47:03;100720.41;;;3.60;80.52
53550;BME280;73079;52.914;-0.982;2024-03-23T04:49:33;100719.59;;;3.60;80.38
53550;BME280;73079;52.914;-0.982;2024-03-23T04:51:58;100715.81;;;3.63;80.29
53550;BME280;73079;52.914;-0.982;2024-03-23T04:54:24;100716.22;;;3.68;80.29
53550;BME280;73079;52.914;-0.982;2024-03-23T04:56:51;100707.00;;;3.62;80.58
53550;BME280;73079;52.914;-0.982;2024-03-23T04:59:18;100693.84;;;3.60;80.77
53550;BME280;73079;52.914;-0.982;2024-03-23T05:01:44;100694.97;;;3.58;81.43
53550;BME280;73079;52.914;-0.982;2024-03-23T05:04:09;100694.41;;;3.64;81.56
53550;BME280;73079;52.914;-0.982;2024-03-23T05:06:35;100691.75;;;3.54;82.20
53550;BME280;73079;52.914;-0.982;2024-03-23T05:09:01;100696.50;;;3.60;82.07
53550;BME280;73079;52.914;-0.982;2024-03-23T05:11:37;100692.72;;;3.53;82.46
53550;BME280;73079;52.914;-0.982;2024-03-23T05:14:03;100700.00;;;3.51;82.71
53550;BME280;73079;52.914;-0.982;2024-03-23T05:16:30;100694.41;;;3.54;82.32
53550;BME280;73079;52.914;-0.982;2024-03-23T05:18:56;100695.69;;;3.50;82.62
53550;BME280;73079;52.914;-0.982;2024-03-23T05:21:21;100694.94;;;3.48;82.76
53550;BME280;73079;52.914;-0.982;2024-03-23T05:23:47;100689.63;;;3.48;83.07
53550;BME280;73079;52.914;-0.982;2024-03-23T05:26:13;100680.00;;;3.47;82.55
53550;BME280;73079;52.914;-0.982;2024-03-23T05:28:39;100675.41;;;3.49;82.54
53550;BME280;73079;52.914;-0.982;2024-03-23T05:31:05;100676.34;;;3.48;82.40
53550;BME280;73079;52.914;-0.982;2024-03-23T05:33:32;100678.47;;;3.54;82.27
53550;BME280;73079;52.914;-0.982;2024-03-23T05:36:00;100665.47;;;3.41;82.67
53550;BME280;73079;52.914;-0.982;2024-03-23T05:38:27;100668.69;;;3.45;82.17
53550;BME280;73079;52.914;-0.982;2024-03-23T05:40:54;100663.06;;;3.48;82.07
53550;BME280;73079;52.914;-0.982;2024-03-23T05:43:19;100661.41;;;3.47;82.25
53550;BME280;73079;52.914;-0.982;2024-03-23T05:45:45;100646.59;;;3.45;81.96
53550;BME280;73079;52.914;-0.982;2024-03-23T05:48:11;100663.94;;;3.49;81.52
53550;BME280;73079;52.914;-0.982;2024-03-23T05:50:38;100662.38;;;3.46;81.71
53550;BME280;73079;52.914;-0.982;2024-03-23T05:53:04;100663.66;;;3.52;81.55
53550;BME280;73079;52.914;-0.982;2024-03-23T05:55:31;100669.81;;;3.52;81.66
53550;BME280;73079;52.914;-0.982;2024-03-23T05:57:57;100667.00;;;3.64;80.94
53550;BME280;73079;52.914;-0.982;2024-03-23T06:00:23;100663.66;;;3.61;81.22
53550;BME280;73079;52.914;-0.982;2024-03-23T06:02:52;100657.22;;;3.64;80.62
53550;BME280;73079;52.914;-0.982;2024-03-23T06:05:17;100650.38;;;3.61;80.54
53550;BME280;73079;52.914;-0.982;2024-03-23T06:07:44;100650.78;;;3.57;80.76
53550;BME280;73079;52.914;-0.982;2024-03-23T06:10:10;100645.78;;;3.54;81.09
53550;BME280;73079;52.914;-0.982;2024-03-23T06:12:36;100654.00;;;3.51;80.80
53550;BME280;73079;52.914;-0.982;2024-03-23T06:15:02;100641.81;;;3.48;81.32
53550;BME280;73079;52.914;-0.982;2024-03-23T06:17:28;100644.34;;;3.59;80.30
53550;BME280;73079;52.914;-0.982;2024-03-23T06:19:54;100655.00;;;3.59;80.37
53550;BME280;73079;52.914;-0.982;2024-03-23T06:22:20;100656.09;;;3.57;80.74
53550;BME280;73079;52.914;-0.982;2024-03-23T06:24:47;100657.06;;;3.66;80.55
53550;BME280;73079;52.914;-0.982;2024-03-23T06:27:13;100668.84;;;3.63;80.47
53550;BME280;73079;52.914;-0.982;2024-03-23T06:29:39;100660.84;;;3.63;80.79
53550;BME280;73079;52.914;-0.982;2024-03-23T06:32:05;100668.38;;;3.68;79.98
53550;BME280;73079;52.914;-0.982;2024-03-23T06:34:31;100662.50;;;3.93;79.40
53550;BME280;73079;52.914;-0.982;2024-03-23T06:36:57;100660.22;;;4.18;77.94
53550;BME280;73079;52.914;-0.982;2024-03-23T06:39:22;100652.00;;;4.49;77.23
53550;BME280;73079;52.914;-0.982;2024-03-23T06:41:53;100657.59;;;4.46;76.41
53550;BME280;73079;52.914;-0.982;2024-03-23T06:44:19;100661.66;;;4.50;76.57
53550;BME280;73079;52.914;-0.982;2024-03-23T06:46:45;100648.25;;;4.42;77.15
53550;BME280;73079;52.914;-0.982;2024-03-23T06:49:11;100646.41;;;4.52;76.49
53550;BME280;73079;52.914;-0.982;2024-03-23T06:51:37;100651.19;;;4.38;77.43
53550;BME280;73079;52.914;-0.982;2024-03-23T06:54:05;100635.13;;;4.30;78.09
53550;BME280;73079;52.914;-0.982;2024-03-23T06:56:30;100649.25;;;4.41;77.59
53550;BME280;73079;52.914;-0.982;2024-03-23T06:58:58;100632.41;;;4.50;77.15
53550;BME280;73079;52.914;-0.982;2024-03-23T07:01:24;100639.19;;;4.90;76.03
53550;BME280;73079;52.914;-0.982;2024-03-23T07:03:50;100637.22;;;4.92;75.23
53550;BME280;73079;52.914;-0.982;2024-03-23T07:06:16;100647.25;;;5.26;74.01
53550;BME280;73079;52.914;-0.982;2024-03-23T07:11:23;100643.47;;;5.90;71.28
53550;BME280;73079;52.914;-0.982;2024-03-23T07:13:49;100642.38;;;5.39;72.93
53550;BME280;73079;52.914;-0.982;2024-03-23T07:16:17;100637.28;;;5.28;72.89
53550;BME280;73079;52.914;-0.982;2024-03-23T07:18:42;100627.53;;;5.37;72.49
53550;BME280;73079;52.914;-0.982;2024-03-23T07:21:08;100629.66;;;5.33;73.10
53550;BME280;73079;52.914;-0.982;2024-03-23T07:23:34;100632.91;;;5.99;70.44
53550;BME280;73079;52.914;-0.982;2024-03-23T07:26:01;100631.47;;;6.39;69.56
53550;BME280;73079;52.914;-0.982;2024-03-23T07:28:27;100626.72;;;5.80;70.48
53550;BME280;73079;52.914;-0.982;2024-03-23T07:31:02;100640.06;;;5.62;71.24
53550;BME280;73079;52.914;-0.982;2024-03-23T07:33:29;100632.69;;;5.38;72.67
53550;BME280;73079;52.914;-0.982;2024-03-23T07:35:55;100630.56;;;5.60;71.82
53550;BME280;73079;52.914;-0.982;2024-03-23T07:38:21;100621.59;;;6.05;70.49
53550;BME280;73079;52.914;-0.982;2024-03-23T07:40:46;100625.38;;;6.20;69.70
53550;BME280;73079;52.914;-0.982;2024-03-23T07:43:13;100615.75;;;5.83;70.96
53550;BME280;73079;52.914;-0.982;2024-03-23T07:45:39;100629.44;;;5.44;72.87
53550;BME280;73079;52.914;-0.982;2024-03-23T07:48:05;100630.50;;;5.33;73.68
53550;BME280;73079;52.914;-0.982;2024-03-23T07:50:32;100627.59;;;5.27;73.90
53550;BME280;73079;52.914;-0.982;2024-03-23T07:52:58;100628.91;;;5.23;74.42
53550;BME280;73079;52.914;-0.982;2024-03-23T07:55:24;100623.03;;;5.37;74.37
53550;BME280;73079;52.914;-0.982;2024-03-23T07:57:51;100608.94;;;5.45;74.21
53550;BME280;73079;52.914;-0.982;2024-03-23T08:00:18;100597.34;;;5.54;72.17
53550;BME280;73079;52.914;-0.982;2024-03-23T08:02:44;100609.00;;;5.71;72.14
53550;BME280;73079;52.914;-0.982;2024-03-23T08:05:09;100597.38;;;6.24;70.28
53550;BME280;73079;52.914;-0.982;2024-03-23T08:07:36;100579.56;;;5.99;70.46
53550;BME280;73079;52.914;-0.982;2024-03-23T08:10:02;100608.00;;;5.72;71.59
53550;BME280;73079;52.914;-0.982;2024-03-23T08:12:29;100612.38;;;5.55;71.09
53550;BME280;73079;52.914;-0.982;2024-03-23T08:14:54;100614.81;;;5.48;71.33
53550;BME280;73079;52.914;-0.982;2024-03-23T08:17:21;100613.66;;;5.69;70.64
53550;BME280;73079;52.914;-0.982;2024-03-23T08:19:47;100609.34;;;6.55;67.95
53550;BME280;73079;52.914;-0.982;2024-03-23T08:22:13;100611.88;;;6.56;67.58
53550;BME280;73079;52.914;-0.982;2024-03-23T08:24:40;100605.03;;;6.62;66.94
53550;BME280;73079;52.914;-0.982;2024-03-23T08:27:05;100611.97;;;6.81;67.19
53550;BME280;73079;52.914;-0.982;2024-03-23T08:29:31;100606.69;;;7.06;65.94
53550;BME280;73079;52.914;-0.982;2024-03-23T08:31:57;100604.53;;;6.58;66.07
53550;BME280;73079;52.914;-0.982;2024-03-23T08:34:23;100594.41;;;6.36;67.32
53550;BME280;73079;52.914;-0.982;2024-03-23T08:36:49;100598.50;;;6.56;67.76
53550;BME280;73079;52.914;-0.982;2024-03-23T08:39:15;100598.16;;;6.51;66.62
53550;BME280;73079;52.914;-0.982;2024-03-23T08:41:42;100604.97;;;6.45;67.05
53550;BME280;73079;52.914;-0.982;2024-03-23T08:44:11;100586.03;;;6.31;66.82
53550;BME280;73079;52.914;-0.982;2024-03-23T08:46:37;100594.16;;;6.55;67.62
53550;BME280;73079;52.914;-0.982;2024-03-23T08:49:03;100593.03;;;6.58;67.09
53550;BME280;73079;52.914;-0.982;2024-03-23T08:51:29;100592.59;;;6.87;66.67
53550;BME280;73079;52.914;-0.982;2024-03-23T08:53:54;100582.31;;;7.17;65.32
53550;BME280;73079;52.914;-0.982;2024-03-23T08:56:20;100594.78;;;6.92;66.55
53550;BME280;73079;52.914;-0.982;2024-03-23T08:58:47;100589.53;;;6.65;66.22
53550;BME280;73079;52.914;-0.982;2024-03-23T09:01:13;100603.38;;;6.61;66.64
53550;BME280;73079;52.914;-0.982;2024-03-23T09:03:39;100596.81;;;6.55;67.00
53550;BME280;73079;52.914;-0.982;2024-03-23T09:06:07;100583.44;;;6.39;68.38
53550;BME280;73079;52.914;-0.982;2024-03-23T09:08:33;100583.81;;;7.11;65.87
53550;BME280;73079;52.914;-0.982;2024-03-23T09:11:03;100570.81;;;7.41;64.31
53550;BME280;73079;52.914;-0.982;2024-03-23T09:13:31;100572.06;;;8.03;63.17
53550;BME280;73079;52.914;-0.982;2024-03-23T09:15:58;100556.53;;;7.90;62.52
53550;BME280;73079;52.914;-0.982;2024-03-23T09:18:24;100570.97;;;7.56;62.91
53550;BME280;73079;52.914;-0.982;2024-03-23T09:20:50;100564.47;;;7.50;62.45
53550;BME280;73079;52.914;-0.982;2024-03-23T09:23:16;100574.97;;;7.43;63.19
53550;BME280;73079;52.914;-0.982;2024-03-23T09:25:41;100573.13;;;7.11;64.51
53550;BME280;73079;52.914;-0.982;2024-03-23T09:28:07;100570.28;;;7.13;64.36
53550;BME280;73079;52.914;-0.982;2024-03-23T09:30:36;100566.25;;;6.92;65.72
53550;BME280;73079;52.914;-0.982;2024-03-23T09:33:09;100563.59;;;7.09;64.89
53550;BME280;73079;52.914;-0.982;2024-03-23T09:35:37;100573.47;;;7.24;66.36
53550;BME280;73079;52.914;-0.982;2024-03-23T09:38:02;100568.31;;;7.23;68.56
53550;BME280;73079;52.914;-0.982;2024-03-23T09:40:28;100567.97;;;7.18;69.16
53550;BME280;73079;52.914;-0.982;2024-03-23T09:42:55;100563.75;;;6.99;68.92
53550;BME280;73079;52.914;-0.982;2024-03-23T09:45:22;100560.19;;;6.74;71.56
53550;BME280;73079;52.914;-0.982;2024-03-23T09:47:48;100553.69;;;6.76;74.42
53550;BME280;73079;52.914;-0.982;2024-03-23T09:50:17;100552.25;;;6.98;73.64
53550;BME280;73079;52.914;-0.982;2024-03-23T09:52:45;100551.91;;;6.93;72.37
53550;BME280;73079;52.914;-0.982;2024-03-23T09:55:12;100551.41;;;6.90;72.10
53550;BME280;73079;52.914;-0.982;2024-03-23T09:57:38;100539.34;;;6.85;70.95
53550;BME280;73079;52.914;-0.982;2024-03-23T10:00:05;100540.72;;;6.90;69.05
53550;BME280;73079;52.914;-0.982;2024-03-23T10:02:33;100525.19;;;6.93;69.40
53550;BME280;73079;52.914;-0.982;2024-03-23T10:05:00;100536.84;;;6.92;67.81
53550;BME280;73079;52.914;-0.982;2024-03-23T10:07:27;100534.06;;;7.02;70.89
53550;BME280;73079;52.914;-0.982;2024-03-23T10:09:56;100517.50;;;7.07;69.30
53550;BME280;73079;52.914;-0.982;2024-03-23T10:12:23;100524.00;;;7.12;65.99
53550;BME280;73079;52.914;-0.982;2024-03-23T10:14:49;100520.84;;;7.33;63.50
53550;BME280;73079;52.914;-0.982;2024-03-23T10:20:13;100503.97;;;7.57;61.01
53550;BME280;73079;52.914;-0.982;2024-03-23T10:22:46;100506.44;;;7.75;60.41
53550;BME280;73079;52.914;-0.982;2024-03-23T10:25:12;100516.66;;;8.19;60.80
53550;BME280;73079;52.914;-0.982;2024-03-23T10:27:39;100508.06;;;8.32;60.97
53550;BME280;73079;52.914;-0.982;2024-03-23T10:30:09;100506.28;;;8.16;59.56
53550;BME280;73079;52.914;-0.982;2024-03-23T10:32:35;100497.28;;;8.09;58.96
53550;BME280;73079;52.914;-0.982;2024-03-23T10:35:14;100492.09;;;8.55;58.68
53550;BME280;73079;52.914;-0.982;2024-03-23T10:37:40;100483.41;;;8.77;57.48
53550;BME280;73079;52.914;-0.982;2024-03-23T10:40:10;100487.06;;;9.22;57.76
53550;BME280;73079;52.914;-0.982;2024-03-23T10:42:37;100491.41;;;8.62;56.79
53550;BME280;73079;52.914;-0.982;2024-03-23T10:45:04;100494.91;;;8.23;59.03
53550;BME280;73079;52.914;-0.982;2024-03-23T10:47:31;100492.88;;;8.25;59.69
53550;BME280;73079;52.914;-0.982;2024-03-23T10:49:56;100497.22;;;8.26;59.66
53550;BME280;73079;52.914;-0.982;2024-03-23T10:52:22;100485.50;;;8.35;59.58
53550;BME280;73079;52.914;-0.982;2024-03-23T10:54:51;100490.06;;;8.18;59.53
53550;BME280;73079;52.914;-0.982;2024-03-23T10:57:21;100484.50;;;8.28;60.23
53550;BME280;73079;52.914;-0.982;2024-03-23T10:59:48;100495.19;;;8.28;60.66
53550;BME280;73079;52.914;-0.982;2024-03-23T11:02:19;100503.34;;;8.03;61.05
53550;BME280;73079;52.914;-0.982;2024-03-23T11:04:45;100492.72;;;8.26;60.81
53550;BME280;73079;52.914;-0.982;2024-03-23T11:07:30;100495.03;;;8.29;62.78
53550;BME280;73079;52.914;-0.982;2024-03-23T11:09:57;100510.97;;;8.23;62.74
53550;BME280;73079;52.914;-0.982;2024-03-23T11:12:29;100489.50;;;8.31;61.71
53550;BME280;73079;52.914;-0.982;2024-03-23T11:15:00;100491.00;;;8.33;60.56
53550;BME280;73079;52.914;-0.982;2024-03-23T11:17:27;100481.88;;;8.51;61.99
53550;BME280;73079;52.914;-0.982;2024-03-23T11:19:54;100485.34;;;8.60;60.82
53550;BME280;73079;52.914;-0.982;2024-03-23T11:22:41;100488.28;;;8.50;60.45
53550;BME280;73079;52.914;-0.982;2024-03-23T11:25:16;100484.41;;;8.99;60.63
53550;BME280;73079;52.914;-0.982;2024-03-23T11:27:49;100470.63;;;9.10;59.37
53550;BME280;73079;52.914;-0.982;2024-03-23T11:30:17;100470.69;;;9.17;57.51
53550;BME280;73079;52.914;-0.982;2024-03-23T11:32:44;100469.97;;;9.90;56.04
53550;BME280;73079;52.914;-0.982;2024-03-23T11:35:24;100465.16;;;9.86;55.22
53550;BME280;73079;52.914;-0.982;2024-03-23T11:38:01;100463.50;;;9.17;58.10
53550;BME280;73079;52.914;-0.982;2024-03-23T11:40:27;100480.97;;;8.35;68.07
53550;BME280;73079;52.914;-0.982;2024-03-23T11:42:57;100501.25;;;7.66;72.49
53550;BME280;73079;52.914;-0.982;2024-03-23T11:45:23;100503.81;;;7.10;75.46
53550;BME280;73079;52.914;-0.982;2024-03-23T11:48:01;100481.09;;;6.89;77.83
53550;BME280;73079;52.914;-0.982;2024-03-23T11:50:27;100479.75;;;6.77;80.04
53550;BME280;73079;52.914;-0.982;2024-03-23T11:52:53;100484.94;;;6.87;79.59
53550;BME280;73079;52.914;-0.982;2024-03-23T11:55:19;100477.47;;;6.98;79.59
53550;BME280;73079;52.914;-0.982;2024-03-23T11:57:44;100480.75;;;7.33;82.66
53550;BME280;73079;52.914;-0.982;2024-03-23T12:00:22;100478.41;;;7.38;79.05
53550;BME280;73079;52.914;-0.982;2024-03-23T12:02:49;100480.06;;;7.56;78.44
53550;BME280;73079;52.914;-0.982;2024-03-23T12:05:15;100473.63;;;7.81;76.66
53550;BME280;73079;52.914;-0.982;2024-03-23T12:07:41;100464.88;;;8.04;75.54
53550;BME280;73079;52.914;-0.982;2024-03-23T12:10:07;100464.22;;;8.02;74.86
53550;BME280;73079;52.914;-0.982;2024-03-23T12:12:33;100459.00;;;8.40;73.47
53550;BME280;73079;52.914;-0.982;2024-03-23T12:15:04;100449.31;;;8.08;69.70
53550;BME280;73079;52.914;-0.982;2024-03-23T12:17:32;100458.53;;;8.05;67.70
53550;BME280;73079;52.914;-0.982;2024-03-23T12:20:00;100476.28;;;7.90;68.23
53550;BME280;73079;52.914;-0.982;2024-03-23T12:22:26;100519.69;;;7.03;73.02
53550;BME280;73079;52.914;-0.982;2024-03-23T12:24:52;100520.66;;;5.22;82.15
53550;BME280;73079;52.914;-0.982;2024-03-23T12:27:18;100499.41;;;4.86;89.75
53550;BME280;73079;52.914;-0.982;2024-03-23T12:29:44;100505.16;;;4.99;86.61
53550;BME280;73079;52.914;-0.982;2024-03-23T12:32:12;100500.59;;;5.09;87.09
53550;BME280;73079;52.914;-0.982;2024-03-23T12:34:40;100502.28;;;5.10;84.31
53550;BME280;73079;52.914;-0.982;2024-03-23T12:37:08;100496.63;;;5.31;82.95
53550;BME280;73079;52.914;-0.982;2024-03-23T12:39:34;100497.56;;;6.01;81.77
53550;BME280;73079;52.914;-0.982;2024-03-23T12:42:01;100507.44;;;6.68;79.63
53550;BME280;73079;52.914;-0.982;2024-03-23T12:44:28;100502.09;;;6.68;80.00
53550;BME280;73079;52.914;-0.982;2024-03-23T12:46:54;100526.66;;;6.20;78.11
53550;BME280;73079;52.914;-0.982;2024-03-23T12:49:20;100489.25;;;5.51;79.05
53550;BME280;73079;52.914;-0.982;2024-03-23T12:51:53;100485.19;;;5.65;79.51
53550;BME280;73079;52.914;-0.982;2024-03-23T12:54:23;100483.63;;;5.55;81.86
53550;BME280;73079;52.914;-0.982;2024-03-23T12:56:49;100494.59;;;5.78;81.86
53550;BME280;73079;52.914;-0.982;2024-03-23T12:59:15;100490.09;;;6.13;82.51
53550;BME280;73079;52.914;-0.982;2024-03-23T13:01:42;100479.19;;;6.40;81.74
53550;BME280;73079;52.914;-0.982;2024-03-23T13:04:09;100470.78;;;6.19;79.96
53550;BME280;73079;52.914;-0.982;2024-03-23T13:06:35;100467.41;;;6.08;79.22
53550;BME280;73079;52.914;-0.982;2024-03-23T13:09:03;100473.69;;;6.50;79.38
53550;BME280;73079;52.914;-0.982;2024-03-23T13:11:29;100468.41;;;6.83;80.14
53550;BME280;73079;52.914;-0.982;2024-03-23T13:13:55;100460.94;;;6.95;76.93
53550;BME280;73079;52.914;-0.982;2024-03-23T13:16:22;100454.88;;;7.17;74.32
53550;BME280;73079;52.914;-0.982;2024-03-23T13:18:48;100450.34;;;7.42;76.35
53550;BME280;73079;52.914;-0.982;2024-03-23T13:21:14;100449.66;;;7.57;74.99
53550;BME280;73079;52.914;-0.982;2024-03-23T13:23:39;100437.44;;;7.63;72.06
53550;BME280;73079;52.914;-0.982;2024-03-23T13:26:09;100440.78;;;8.04;74.85
53550;BME280;73079;52.914;-0.982;2024-03-23T13:28:35;100434.53;;;8.20;71.35
53550;BME280;73079;52.914;-0.982;2024-03-23T13:31:01;100435.75;;;8.09;70.07
53550;BME280;73079;52.914;-0.982;2024-03-23T13:33:31;100433.00;;;7.86;70.13
53550;BME280;73079;52.914;-0.982;2024-03-23T13:36:00;100412.31;;;7.80;69.24
53550;BME280;73079;52.914;-0.982;2024-03-23T13:38:26;100423.69;;;8.13;69.43
53550;BME280;73079;52.914;-0.982;2024-03-23T13:40:52;100413.16;;;8.43;66.27
53550;BME280;73079;52.914;-0.982;2024-03-23T13:43:20;100407.63;;;8.91;67.32
53550;BME280;73079;52.914;-0.982;2024-03-23T13:45:47;100410.25;;;9.14;66.53
53550;BME280;73079;52.914;-0.982;2024-03-23T13:48:14;100426.28;;;9.37;63.11